Latest Weather Observations for Maatsuyker Island

IDT60801

Issued at 9:02 am EDT Thursday 19 January 2017 (issued every 30 minutes, with the page automatically refreshed every 10 minutes)

About weather observations | Map of weather stations | Latest weather observations for TAS | Other Formats
Station Details ID: 094041 Name: MAATSUYKER ISLAND LIGHTHOUSE Lat: -43.66 Lon: 146.27 Height: 146.5 m
Data from the previous 72 hours. | See also: Recent months at Maatsuyker Island
Date/Time
EDT
Temp
°C
App
Temp
°C
Dew
Point
°C
Rel
Hum
%
Delta-T
°C
Wind Press
QNH
hPa
Press
MSL
hPa
Rain since
9am
mm
Dir  Spd
km/h
Gust
km/h
Spd
kts
Gust
kts
19/08:30am 10.9 6.0 4.0 62 3.1 SSW 19 26 10 14 1018.2 - 0.0
19/08:00am 10.7 4.8 4.0 63 3.0 SSW 24 30 13 16 1017.9 - 0.0
19/07:30am 10.5 5.5 4.8 68 2.6 SSW 20 28 11 15 1017.9 - 0.0
19/07:00am 10.3 5.7 5.8 73 2.1 S 19 24 10 13 1017.7 - 0.0
19/06:30am 10.4 4.8 5.6 72 2.2 W 24 30 13 16 1017.5 - 0.0
19/06:00am 10.4 4.2 1.9 55 3.6 WNW 24 32 13 17 1017.2 1017.1 0.0
19/05:30am 10.0 5.9 2.5 59 3.2 WSW 13 20 7 11 1017.2 - 0.0
19/05:00am 9.9 4.4 1.8 57 3.4 WSW 20 33 11 18 1016.9 - 0.0
19/04:30am 10.0 4.2 2.5 59 3.2 WSW 22 28 12 15 1016.7 - 0.0
19/04:00am 10.0 4.6 2.5 59 3.2 WSW 20 30 11 16 1016.8 - 0.0
19/03:30am 10.1 4.8 3.2 62 3.0 WSW 20 26 11 14 1017.0 - 0.0
19/03:00am 10.3 4.4 4.0 65 2.8 WSW 24 30 13 16 1017.2 1017.1 0.0
19/02:30am 10.6 4.7 4.1 64 2.9 WNW 24 32 13 17 1017.1 - 0.0
19/02:00am 10.7 4.8 3.7 62 3.1 WNW 24 30 13 16 1017.2 - 0.0
19/01:30am 10.7 4.8 3.7 62 3.1 W 24 30 13 16 1017.4 - 0.0
19/01:00am 10.7 5.7 4.5 65 2.8 W 20 28 11 15 1017.4 - 0.0
19/12:30am 10.8 5.5 4.9 67 2.7 W 22 30 12 16 1017.3 - 0.0
19/12:00am 10.8 6.3 4.4 64 2.9 W 17 24 9 13 1017.3 1017.2 0.0
 
Date/Time
EDT
Temp
°C
App
Temp
°C
Dew
Point
°C
Rel
Hum
%
Delta-T
°C
Wind Press
QNH
hPa
Press
MSL
hPa
Rain since
9am
mm
Dir  Spd
km/h
Gust
km/h
Spd
kts
Gust
kts
18/11:30pm 10.7 4.8 3.7 62 3.1 W 24 35 13 19 1017.4 - 0.0
18/11:00pm 10.6 4.5 3.0 59 3.3 W 24 33 13 18 1017.4 - 0.0
18/10:30pm 10.9 4.7 4.2 63 3.0 W 26 35 14 19 1017.3 - 0.0
18/10:00pm 11.1 4.9 4.5 64 3.0 WSW 26 35 14 19 1017.2 - 0.0
18/09:30pm 11.1 4.6 4.5 64 3.0 W 28 35 15 19 1017.1 - 0.0
18/09:00pm 11.1 4.0 3.7 60 3.3 W 30 39 16 21 1017.0 1016.9 0.0
18/08:30pm 11.3 4.2 3.7 59 3.4 W 30 37 16 20 1016.9 - 0.0
18/08:00pm 11.9 5.8 5.0 62 3.2 W 26 37 14 20 1016.5 - 0.0
18/07:30pm 11.6 5.1 4.6 62 3.2 W 28 41 15 22 1016.1 - 0.0
18/07:00pm 12.3 4.9 5.0 61 3.4 W 33 48 18 26 1015.8 - 0.0
18/06:30pm 12.2 4.6 5.8 65 3.0 WSW 35 52 19 28 1015.5 - 0.0
18/06:00pm 12.1 5.3 6.9 70 2.5 WSW 32 50 17 27 1015.1 1015.1 0.0
18/05:54pm 11.5 4.5 6.2 70 2.5 W 32 50 17 27 1015.1 - 0.0
18/05:30pm 12.3 3.1 5.5 63 3.2 W 43 54 23 29 1014.7 - 0.0
18/05:00pm 13.3 4.9 5.5 59 3.7 W 39 52 21 28 1014.6 - 0.0
18/04:30pm 13.2 4.0 5.3 58 3.7 W 43 52 23 28 1014.3 - 0.0
18/04:00pm 13.2 4.1 6.1 62 3.4 WNW 43 54 23 29 1014.0 - 0.0
18/03:30pm 13.0 4.1 5.1 58 3.7 W 41 56 22 30 1013.8 - 0.0
18/03:00pm 13.1 4.2 5.2 58 3.7 WNW 41 56 22 30 1013.3 1013.2 0.0
18/02:30pm 13.3 3.9 4.2 54 4.2 W 43 56 23 30 1013.3 - 0.0
18/02:00pm 13.2 3.5 4.0 53 4.2 W 44 57 24 31 1012.9 - 0.0
18/01:30pm 12.9 3.9 4.7 57 3.8 W 41 54 22 29 1012.3 - 0.0
18/01:00pm 12.9 3.5 4.2 55 4.0 W 43 57 23 31 1011.8 - 0.0
18/12:30pm 12.7 2.8 4.7 58 3.7 W 46 61 25 33 1011.5 - 0.0
18/12:02pm 12.6 3.3 3.2 52 4.2 W 41 61 22 33 1011.2 - 0.0
18/12:00pm 12.6 3.5 4.0 56 3.9 W 41 54 22 29 1011.2 1011.1 0.0
18/11:30am 12.4 2.0 4.3 57 3.7 W 48 59 26 32 1010.8 - 0.0
18/11:01am 12.0 0.2 2.7 53 4.1 W 54 72 29 39 1010.3 - 0.0
18/11:00am 12.1 0.8 3.4 55 3.9 W 52 67 28 36 1010.2 - 0.0
18/10:30am 12.2 1.2 5.1 62 3.3 W 52 67 28 36 1009.4 - 0.0
18/10:00am 11.9 1.6 4.5 60 3.4 W 48 65 26 35 1009.0 - 0.0
18/09:48am 12.0 3.0 4.6 60 3.4 W 41 69 22 37 1008.7 - 0.0
18/09:30am 11.6 1.6 4.4 61 3.3 W 46 61 25 33 1008.5 - 0.0
18/09:00am 11.5 0.8 4.8 63 3.1 W 50 63 27 34 1007.9 1007.8 1.8
18/08:30am 11.4 1.2 5.1 65 2.9 W 48 65 26 35 1007.4 - 1.8
18/08:01am 11.4 -0.4 5.6 67 2.7 W 57 76 31 41 1006.7 - 1.8
18/08:00am 11.4 -0.7 5.9 69 2.6 W 59 76 32 41 1006.6 - 1.8
18/07:49am 11.5 -0.2 6.2 70 2.5 W 57 76 31 41 1006.1 - 1.8
18/07:30am 11.5 -2.1 6.2 70 2.5 WNW 67 80 36 43 1005.6 - 1.8
18/07:00am 11.2 -3.1 7.3 77 1.9 WNW 72 82 39 44 1004.5 - 1.8
18/06:44am 10.9 -2.6 8.3 84 1.3 WNW 69 91 37 49 1003.6 - 1.8
18/06:30am 11.4 -3.0 7.1 75 2.1 WNW 72 85 39 46 1003.7 - 1.8
18/06:16am 11.0 -3.1 6.4 73 2.2 WNW 70 89 38 48 1003.8 - 1.8
18/06:00am 10.9 -2.2 6.7 75 2.0 W 65 89 35 48 1003.5 1003.4 1.8
18/05:30am 10.0 -5.8 7.3 83 1.3 NW 80 104 43 56 1002.6 - 1.6
18/05:00am 10.2 -4.7 8.2 87 1.0 WNW 76 98 41 53 1002.3 - 1.0
18/04:56am 10.3 -5.5 7.6 83 1.3 WNW 80 98 43 53 1003.0 - 0.8
18/04:50am 11.8 -4.1 7.1 73 2.3 WNW 80 96 43 52 1001.3 - 0.6
18/04:48am 11.5 -0.4 7.0 74 2.2 WNW 59 78 32 42 1001.7 - 0.6
18/04:44am 10.9 -0.8 5.5 69 2.5 W 56 65 30 35 1002.7 - 0.6
18/04:30am 11.9 -3.9 7.4 74 2.2 WNW 80 93 43 50 1001.1 - 0.6
18/04:00am 11.2 -5.5 7.5 78 1.8 WNW 85 98 46 53 1001.0 - 0.6
18/03:30am 12.1 -5.0 9.2 82 1.5 NW 89 96 48 52 999.7 - 0.6
18/03:00am 11.8 -5.0 8.6 81 1.6 NW 87 96 47 52 999.4 999.3 0.6
18/02:30am 12.4 -3.8 9.7 83 1.4 NW 85 98 46 53 999.3 - 0.4
18/02:16am 12.7 -2.8 8.8 77 2.0 NW 80 98 43 53 999.0 - 0.4
18/02:00am 12.8 -2.3 8.9 77 2.0 NW 78 91 42 49 999.9 - 0.4
18/01:30am 12.6 -1.7 8.9 78 1.9 NW 74 87 40 47 1000.3 - 0.4
18/01:00am 12.7 -2.4 8.8 77 2.0 NW 78 91 42 49 1000.8 - 0.4
18/12:50am 12.8 -0.9 9.7 81 1.6 NW 72 93 39 50 1000.6 - 0.4
18/12:30am 12.7 -0.1 9.6 81 1.6 NW 67 78 36 42 1001.3 - 0.4
18/12:00am 12.6 0.3 9.9 83 1.4 NW 65 78 35 42 1002.1 1002.0 0.4
 
Date/Time
EDT
Temp
°C
App
Temp
°C
Dew
Point
°C
Rel
Hum
%
Delta-T
°C
Wind Press
QNH
hPa
Press
MSL
hPa
Rain since
9am
mm
Dir  Spd
km/h
Gust
km/h
Spd
kts
Gust
kts
17/11:30pm 12.5 0.0 9.4 81 1.6 NW 65 76 35 41 1002.5 - 0.2
17/11:00pm 12.6 2.0 10.1 85 1.3 NW 56 65 30 35 1002.5 - 0.2
17/10:30pm 12.6 3.4 10.9 89 0.9 NW 50 56 27 30 1003.2 - 0.2
17/10:00pm 12.7 2.4 11.8 94 0.5 NW 57 65 31 35 1002.8 - 0.2
17/09:30pm 12.7 2.1 11.8 94 0.5 NW 59 65 32 35 1002.6 - 0.2
17/09:00pm 12.9 3.4 12.5 97 0.2 NW 54 61 29 33 1002.5 1002.3 0.2
17/08:30pm 13.2 3.9 13.0 99 0.1 NW 54 61 29 33 1001.9 - 0.2
17/08:00pm 13.4 3.5 13.0 97 0.2 NW 57 63 31 34 1002.0 - 0.2
17/07:30pm 14.1 5.2 13.2 94 0.5 NW 52 59 28 32 1001.7 - 0.0
17/07:00pm 14.1 4.5 13.2 94 0.5 NW 56 65 30 35 1001.7 - 0.0
17/06:30pm 14.0 4.4 13.3 96 0.4 NW 56 65 30 35 1001.5 - 0.0
17/06:00pm 14.4 6.3 13.3 93 0.6 NNW 48 56 26 30 1001.7 1001.6 0.0
17/05:30pm 14.3 6.9 13.0 92 0.7 NNW 44 57 24 31 1001.9 - 0.0
17/05:00pm 14.1 6.2 12.7 91 0.8 NNW 46 56 25 30 1002.3 - 0.0
17/04:30pm 14.4 6.8 12.4 88 1.1 NNW 44 54 24 29 1002.4 - 0.0
17/04:00pm 14.9 6.5 12.2 84 1.5 NW 48 57 26 31 1002.5 - 0.0
17/03:30pm 14.8 6.9 12.8 88 1.1 NNW 46 57 25 31 1002.6 - 0.0
17/03:00pm 14.7 6.5 12.9 89 1.0 NNW 48 57 26 31 1002.8 1002.6 0.0
17/02:30pm 14.2 3.5 12.8 91 0.8 NW 61 70 33 38 1002.7 - 0.0
17/02:00pm 14.2 4.4 12.6 90 0.9 NNW 56 67 30 36 1003.1 - 0.0
17/01:30pm 14.5 5.2 12.9 90 0.9 NNW 54 65 29 35 1003.0 - 0.0
17/01:00pm 14.6 4.5 12.4 87 1.2 NW 57 69 31 37 1003.2 - 0.0
17/12:30pm 14.7 4.6 11.8 83 1.6 NNW 56 67 30 36 1003.2 - 0.0
17/12:00pm 14.8 6.0 12.3 85 1.4 NNW 50 61 27 33 1003.4 1003.3 0.0
17/11:30am 15.0 6.0 11.7 80 1.8 NNW 50 59 27 32 1003.6 - 0.0
17/11:00am 14.8 5.7 11.3 79 1.9 NNW 50 63 27 34 1003.5 - 0.0
17/10:30am 14.9 5.5 11.6 80 1.8 NNW 52 61 28 33 1003.8 - 0.0
17/10:04am 15.0 8.4 11.5 79 1.9 NNW 37 56 20 30 1004.1 - 0.0
17/10:00am 14.8 8.7 11.7 82 1.7 NNW 35 44 19 24 1004.3 - 0.0
17/09:30am 14.6 7.7 11.5 82 1.7 NNW 39 50 21 27 1004.3 - 0.0
17/09:00am 14.6 8.1 11.8 83 1.5 NNW 37 50 20 27 1004.3 1004.2 0.2
17/08:30am 14.4 5.9 12.0 85 1.3 NNW 48 61 26 33 1004.2 - 0.2
17/08:00am 14.1 7.2 11.5 84 1.4 NNW 39 56 21 30 1004.5 - 0.2
17/07:33am 14.2 6.9 11.4 83 1.5 NNW 41 63 22 34 1004.1 - 0.2
17/07:30am 14.1 7.2 11.7 85 1.3 NNW 39 50 21 27 1004.3 - 0.2
17/07:24am 14.2 7.0 11.8 85 1.3 NNW 41 59 22 32 1004.3 - 0.2
17/07:00am 14.3 6.0 11.3 82 1.6 NNW 46 59 25 32 1004.0 - 0.2
17/06:30am 14.3 4.5 11.3 82 1.6 NNW 54 65 29 35 1003.6 - 0.2
17/06:00am 14.3 5.5 10.9 80 1.8 NNW 48 61 26 33 1003.5 1003.4 0.2
17/05:43am 14.0 6.9 11.0 82 1.6 NNW 39 57 21 31 1003.7 - 0.2
17/05:30am 13.9 7.6 10.9 82 1.6 NNW 35 44 19 24 1003.8 - 0.2
17/05:00am 13.8 7.8 10.8 82 1.6 NNW 33 44 18 24 1003.7 - 0.2
17/04:30am 13.9 7.4 10.5 80 1.8 NNW 35 44 19 24 1003.6 - 0.2
17/04:00am 13.9 7.4 10.5 80 1.8 NNW 35 50 19 27 1003.6 - 0.2
17/03:30am 13.6 6.5 10.8 83 1.5 NNW 39 48 21 26 1003.5 - 0.2
17/03:00am 13.8 7.0 10.6 81 1.7 NNW 37 48 20 26 1003.9 1003.8 0.2
17/02:30am 13.7 6.5 10.7 82 1.6 NNW 39 52 21 28 1004.3 - 0.2
17/02:02am 13.6 3.9 10.6 82 1.6 NNW 52 70 28 38 1004.4 - 0.2
17/02:00am 13.6 3.2 10.8 83 1.5 NNW 56 70 30 38 1004.2 - 0.2
17/01:47am 13.7 3.3 10.5 81 1.7 NNW 56 74 30 40 1003.9 - 0.2
17/01:30am 13.5 3.9 10.9 84 1.4 NNW 52 65 28 35 1004.5 - 0.2
17/01:00am 14.0 3.4 10.0 77 2.1 NNW 56 80 30 43 1004.5 - 0.0
17/12:58am 14.2 4.1 10.4 78 2.0 NNW 54 80 29 43 1004.4 - 0.0
17/12:30am 14.1 3.5 10.1 77 2.1 NNW 56 69 30 37 1004.3 - 0.0
17/12:00am 14.1 2.6 10.3 78 2.0 NNW 61 80 33 43 1004.5 1004.4 0.0
 
Date/Time
EDT
Temp
°C
App
Temp
°C
Dew
Point
°C
Rel
Hum
%
Delta-T
°C
Wind Press
QNH
hPa
Press
MSL
hPa
Rain since
9am
mm
Dir  Spd
km/h
Gust
km/h
Spd
kts
Gust
kts
16/11:33pm 13.9 3.4 10.9 82 1.6 NNW 57 76 31 41 1004.7 - 0.0
16/11:30pm 14.1 3.6 10.3 78 2.0 NNW 56 72 30 39 1005.1 - 0.0
16/11:06pm 14.4 1.7 9.8 74 2.4 NNW 67 85 36 46 1005.1 - 0.0
16/11:00pm 14.4 0.2 9.2 71 2.7 NNW 74 85 40 46 1004.6 - 0.0
16/10:31pm 14.5 3.8 9.5 72 2.6 NNW 56 76 30 41 1005.3 - 0.0
16/10:30pm 14.6 4.3 9.8 73 2.5 NNW 54 65 29 35 1005.5 - 0.0
16/10:08pm 14.5 4.2 9.5 72 2.6 NNW 54 72 29 39 1005.7 - 0.0
16/10:00pm 14.6 3.6 9.2 70 2.8 NNW 57 72 31 39 1005.3 - 0.0
16/09:30pm 14.4 4.0 9.4 72 2.6 NNW 54 67 29 36 1005.6 - 0.0
16/09:23pm 14.5 3.6 9.7 73 2.5 NNW 57 76 31 41 1005.6 - 0.0
16/09:00pm 14.5 3.6 9.5 72 2.6 NNW 57 72 31 39 1005.4 1005.3 0.0
16/08:30pm 14.4 3.5 9.6 73 2.5 NNW 57 72 31 39 1005.2 - 0.0
16/08:00pm 14.3 2.8 10.3 77 2.1 NNW 61 72 33 39 1005.3 - 0.0
16/07:30pm 14.3 3.1 9.9 75 2.3 NNW 59 76 32 41 1005.4 - 0.0
16/07:00pm 14.2 2.7 10.0 76 2.2 NNW 61 74 33 40 1005.5 - 0.0
16/06:30pm 14.4 2.5 10.2 76 2.2 NW 63 76 34 41 1005.9 - 0.0
16/06:02pm 14.9 4.3 10.0 72 2.6 NW 56 74 30 40 1006.6 - 0.0
16/06:00pm 15.2 4.4 10.1 71 2.7 NW 57 74 31 40 1006.5 1006.4 0.0
16/05:31pm 15.6 5.8 8.8 64 3.5 NNW 50 69 27 37 1006.3 - 0.0
16/05:30pm 15.4 5.6 8.8 65 3.4 NNW 50 65 27 35 1006.4 - 0.0
16/05:24pm 15.7 6.9 9.6 67 3.2 NNW 46 65 25 35 1007.0 - 0.0
16/05:00pm 15.5 6.7 9.4 67 3.2 NNW 46 59 25 32 1007.1 - 0.0
16/04:30pm 15.6 7.6 10.3 70 2.8 NNW 43 59 23 32 1007.5 - 0.0
16/04:00pm 15.6 7.3 9.9 69 3.0 NNW 44 59 24 32 1007.7 - 0.0
16/03:30pm 15.4 6.7 9.9 70 2.9 NNW 46 59 25 32 1008.1 - 0.0
16/03:03pm 14.9 5.2 9.1 68 3.0 NNW 50 69 27 37 1008.1 - 0.0
16/03:00pm 14.8 4.8 9.4 70 2.8 NNW 52 69 28 37 1008.1 1008.0 0.0
16/02:52pm 14.8 5.1 9.0 68 3.0 NNW 50 69 27 37 1008.2 - 0.0
16/02:30pm 14.2 3.9 9.6 74 2.4 NNW 54 69 29 37 1008.3 - 0.0
16/02:00pm 13.3 2.1 10.0 80 1.7 NNW 59 70 32 38 1008.5 - 0.0
16/01:30pm 14.4 5.1 10.4 77 2.1 NNW 50 63 27 34 1009.4 - 0.0
16/01:26pm 14.0 4.3 10.6 80 1.8 NNW 52 63 28 34 1009.4 - 0.0
16/01:00pm 13.1 -0.9 10.2 82 1.5 NW 74 83 40 45 1008.9 - 0.0
16/12:30pm 13.3 1.6 10.8 85 1.3 NW 63 72 34 39 1009.1 - 0.0
16/12:00pm 12.5 0.6 11.4 93 0.6 NW 65 74 35 40 1009.4 1009.3 0.0
16/11:30am 12.4 1.1 10.9 90 0.8 NW 61 70 33 38 1009.7 - 0.0
16/11:00am 12.9 1.6 9.4 79 1.8 NW 59 69 32 37 1009.7 - 0.0
16/10:30am 12.1 0.0 10.6 90 0.8 NW 65 72 35 39 1009.7 - 0.0
16/10:00am 12.1 1.5 10.0 87 1.1 NW 56 69 30 37 1010.0 - 0.0
16/09:30am 12.7 1.2 8.5 75 2.1 NNW 59 74 32 40 1009.9 - 0.0

Other Formats:

Comma delimited format used in spreadsheet applications
http://www.bom.gov.au/fwo/IDT60801/IDT60801.94962.axf

JavaScript Object Notation format (JSON) in row-major order
http://www.bom.gov.au/fwo/IDT60801/IDT60801.94962.json